TAF Text Data
IDs:
Format:
Raw Decoded Include METAR

Data at: 0411 UTC 06 Dec 2019

Region: TOP
KATL 060335Z 0604/0706 VRB02KT P6SM SCT120 BKN200
  FM061400 14004KT P6SM SCT060 BKN120
  FM061800 17005KT P6SM SCT060 BKN100
  PROB30 0618/0620 P6SM -RA BKN060
  FM062000 16005KT P6SM -RA BKN050 OVC100
  FM070100 09005KT P6SM VCSH OVC050


KBOS 060258Z 0603/0706 28012G19KT P6SM BKN050
  FM061000 27010KT P6SM SKC
  FM061400 25010KT P6SM BKN080
  FM062000 23010KT 2SM -SN BR FEW008 OVC012
  FM062200 26010KT 3SM -SN BR OVC015
  FM070300 31008KT P6SM BKN025


KBWI 052320Z 0600/0706 28006KT P6SM SKC
  FM060200 29003KT P6SM SKC
  FM061300 17003KT P6SM BKN150
  FM062200 25007KT P6SM OVC050
  FM070200 31008KT P6SM SCT250


KCLE 060259Z 0603/0706 20010KT P6SM BKN100
  FM061200 24010KT P6SM SCT070 OVC100
  FM061400 29010G18KT P6SM BKN025 OVC060
  FM062000 32011KT P6SM BKN035
  FM070100 33010KT P6SM OVC040


KCLT 060159Z 0602/0706 18002KT P6SM FEW250
  FM061500 21006KT P6SM BKN120
  FM061900 23005KT P6SM SCT060 OVC090
  FM070000 27002KT P6SM FEW080


KCVG 052326Z 0600/0706 18004KT P6SM FEW250
  FM060900 22006KT P6SM OVC100
  FM061300 25006KT 5SM -RA OVC015
  FM061900 31005KT P6SM FEW025 BKN050
  FM062300 01006KT P6SM FEW050


KDCA 052320Z 0600/0706 29005KT P6SM SKC
  FM060400 29004KT P6SM SKC
  FM061200 19006KT P6SM BKN150
  FM062200 23008KT P6SM OVC050
  FM070200 31007KT P6SM SCT250


KDEN 060402Z 0604/0706 24005KT P6SM VCFG FEW007 SCT035 BKN050
  FM061000 21010KT P6SM BKN200
  FM061500 24008KT P6SM SCT120 SCT200
  FM070100 20008KT P6SM FEW200


KDFW 060309Z 0603/0706 17008KT P6SM BKN110
  FM060600 23010KT P6SM SCT300
  FM060900 31014G24KT P6SM FEW300
  FM061600 34018G28KT P6SM BKN024
  FM062100 35015KT P6SM BKN045
  FM070200 36007KT P6SM SCT050 BKN300


KDTW 060301Z 0603/0706 19006KT P6SM OVC070
  FM061100 27008KT P6SM SCT018 BKN030
  FM061400 32010G18KT P6SM BKN025
  FM062200 33008KT P6SM SCT025


KEWR 060200Z 0602/0706 29012G20KT P6SM SCT050
  FM060400 29012KT P6SM FEW050
  FM060700 28007KT P6SM SCT250
  FM061200 23006KT P6SM BKN100
  FM061500 22010KT P6SM OVC080
  FM061700 22012G19KT P6SM SCT050 OVC080
  FM062200 25013G21KT P6SM BKN050 OVC080
  FM070100 31013G21KT P6SM FEW050


KFLL 060313Z 0603/0706 VRB04KT P6SM SCT250
  FM061400 12008KT P6SM FEW035 SCT250
  FM070000 VRB03KT P6SM SCT250


KIAD 052320Z 0600/0706 29005KT P6SM SKC
  FM060300 29004KT P6SM SKC
  FM061200 19006KT P6SM BKN150
  FM062100 24007KT P6SM BKN050
  FM070200 33008KT P6SM SCT250


KIAH 060334Z 0604/0706 16005KT P6SM FEW030 BKN250
  FM060900 VRB04KT P6SM SCT025 BKN050
  TEMPO 0612/0615 BKN015
  FM061600 30011KT P6SM OVC250
  FM062000 32008KT P6SM FEW250


KJFK 060200Z 0602/0706 29015G23KT P6SM SCT050
  FM060500 29013KT P6SM FEW050 FEW250
  FM060900 29009KT P6SM SCT250
  FM061200 26008KT P6SM BKN100
  FM061500 22012KT P6SM OVC100
  FM061700 21015G22KT P6SM SCT050 OVC080
  FM062300 26015G24KT P6SM BKN050 OVC080
  FM070200 32014G22KT P6SM FEW050


KLAS 060244Z 0603/0706 21006KT P6SM SCT150 BKN250
  FM061600 VRB05KT P6SM BKN200
  FM062000 12005KT P6SM SCT250
  FM070300 20005KT P6SM FEW250


KLAX 060322Z 0603/0706 VRB03KT P6SM BKN200
  FM061400 09006KT P6SM BKN050
  FM062000 20006KT P6SM BKN050
  FM062300 25005KT P6SM OVC050
  FM070300 VRB03KT P6SM OVC050


KLGA 060200Z 0602/0706 29014G20KT P6SM SCT050
  FM060500 30012KT P6SM FEW050 FEW250
  FM060900 29008KT P6SM SCT250
  FM061200 26007KT P6SM BKN100
  FM061500 22011KT P6SM OVC100
  FM061700 22014G21KT P6SM SCT050 OVC080
  FM062300 26013G23KT P6SM BKN050 OVC080
  FM070200 32013G22KT P6SM FEW050


KMCO 060300Z 0603/0706 VRB02KT P6SM BKN250
  FM061600 18006KT P6SM FEW040 SCT250
  FM062100 22006KT P6SM SCT040 BKN250
  FM070000 27005KT P6SM SCT250


KMDW 060323Z 0603/0706 22008KT P6SM BKN120
  FM060900 33011KT P6SM SCT025 SCT120
  TEMPO 0611/0613 BKN025
  FM061300 36014G20KT P6SM SCT015 BKN025
  FM061900 01010KT P6SM SCT025 SCT250
  FM070000 01006KT P6SM SKC


KMEM 060249Z 0603/0706 15007KT P6SM BKN100
  FM060700 16007KT P6SM VCSH SCT020 OVC040
  FM061100 16006KT 6SM -SHRA SCT015 OVC025
  FM061300 12005KT 5SM -SHRA VCTS BKN015CB
  FM061600 03005KT P6SM OVC012
  FM062100 01008KT P6SM BKN015 OVC025


KMIA 060313Z 0603/0706 VRB03KT P6SM SCT250
  FM061400 12008KT P6SM FEW035 SCT250
  FM070000 VRB03KT P6SM SCT250


KMSP 060308Z 0603/0706 36015G25KT P6SM OVC020
  TEMPO 0604/0606 SCT020
  FM060800 33007KT P6SM BKN020
  FM061700 26004KT P6SM SCT250
  FM062300 16005KT P6SM OVC070


KORD 060323Z 0603/0706 22008KT P6SM BKN120
  FM060900 33011KT P6SM SCT025 SCT120
  TEMPO 0611/0613 BKN025
  FM061300 36014G20KT P6SM SCT015 BKN025
  FM061900 01010KT P6SM SCT025 SCT250
  FM070000 01006KT P6SM SKC


KPDX 060254Z 0603/0624 10006KT P6SM OVC150
  FM061400 10011KT P6SM SCT024 BKN050
  FM062300 12006KT P6SM VCSH SCT015 OVC030


KPHL 060302Z 0603/0706 28008KT P6SM BKN045
  FM061000 27005KT P6SM BKN150
  FM061400 21008KT P6SM OVC120
  FM061700 24012KT P6SM BKN050
  FM070100 27009KT P6SM BKN090


KPHX 060317Z 0603/0706 10005KT P6SM FEW070 BKN200
  TEMPO 0603/0607 VRB03KT
  FM062300 30005KT P6SM BKN200


KPIT 060245Z 0603/0706 23004KT P6SM BKN120
  FM060900 21006KT P6SM OVC080 WS020/25035KT
  FM061500 25005KT P6SM OVC035


KSAN 060303Z 0603/0706 VRB04KT P6SM FEW025 BKN250
  FM062100 27007KT P6SM SCT050 OVC100


KSEA 060256Z 0603/0706 06003KT 6SM BR BKN045 OVC080
  FM060900 05004KT 6SM BR BKN040
  FM061800 10005KT P6SM BKN050 OVC080
  FM070000 13005KT P6SM OVC030
  FM070200 13006KT P6SM -RA OVC050


KSFO 060305Z 0603/0706 11006KT P6SM BKN030 OVC250
  FM060600 12006KT P6SM BKN024 OVC200 WS020/16030KT
  FM061500 13009G16KT P6SM BKN020 OVC200 WS020/16035KT
  FM061800 14014G27KT 6SM BR VCSH BKN025 OVC035
  FM062000 15018G32KT 6SM -SHRA BR OVC025
  FM070000 16020G35KT 5SM -RA BR OVC025


KSLC 060405Z 0604/0706 35004KT 3SM BR OVC030
  FM060600 14003KT 1SM BR OVC010
  TEMPO 0611/0614 1/4SM BCFG OVC002
  FM061400 14003KT 1SM BR OVC004
  FM061800 14003KT 2SM BR OVC005
  FM062000 22005KT 4SM HZ OVC012


KSTL 060305Z 0603/0706 18008KT P6SM OVC110
  FM060700 21006KT P6SM VCSH OVC080
  TEMPO 0608/0611 -SHRA
  FM061300 36011KT P6SM OVC015
  FM061900 01009KT P6SM BKN025
  FM062100 02009KT P6SM SCT030


KTPA 060317Z 0603/0706 VRB03KT P6SM BKN250
  FM061800 22007KT P6SM SCT250
  FM062300 VRB04KT P6SM FEW250